sensor_id;sensor_type;location;lat;lon;timestamp;pressure;altitude;pressure_sealevel;temperature;humidity
13594;BME280;6449;47.666;9.160;2023-02-18T00:00:33;98183.03;;;10.72;100.00
13594;BME280;6449;47.666;9.160;2023-02-18T00:05:28;98181.59;;;10.66;100.00
13594;BME280;6449;47.666;9.160;2023-02-18T00:15:29;98168.63;;;10.63;100.00
13594;BME280;6449;47.666;9.160;2023-02-18T00:20:24;98167.13;;;10.59;100.00
13594;BME280;6449;47.666;9.160;2023-02-18T00:25:20;98159.09;;;10.62;100.00
13594;BME280;6449;47.666;9.160;2023-02-18T00:55:50;98149.28;;;10.50;100.00
13594;BME280;6449;47.666;9.160;2023-02-18T01:00:44;98140.59;;;10.49;100.00
13594;BME280;6449;47.666;9.160;2023-02-18T01:15:53;98129.78;;;10.70;100.00
13594;BME280;6449;47.666;9.160;2023-02-18T01:31:06;98121.09;;;10.54;100.00
13594;BME280;6449;47.666;9.160;2023-02-18T01:41:01;98114.78;;;10.26;100.00
13594;BME280;6449;47.666;9.160;2023-02-18T01:46:16;98112.94;;;10.28;100.00
13594;BME280;6449;47.666;9.160;2023-02-18T01:56:25;98114.25;;;10.19;100.00
13594;BME280;6449;47.666;9.160;2023-02-18T02:01:40;98098.94;;;9.96;100.00
13594;BME280;6449;47.666;9.160;2023-02-18T02:27:21;98086.75;;;10.11;100.00
13594;BME280;6449;47.666;9.160;2023-02-18T02:42:25;98058.38;;;10.03;100.00
13594;BME280;6449;47.666;9.160;2023-02-18T02:52:33;98048.56;;;10.07;100.00
13594;BME280;6449;47.666;9.160;2023-02-18T03:18:22;98040.78;;;10.21;100.00
13594;BME280;6449;47.666;9.160;2023-02-18T03:23:38;98038.34;;;10.18;100.00
13594;BME280;6449;47.666;9.160;2023-02-18T03:54:09;98050.88;;;10.29;100.00
13594;BME280;6449;47.666;9.160;2023-02-18T04:04:07;98056.25;;;10.41;100.00
13594;BME280;6449;47.666;9.160;2023-02-18T04:09:00;98052.34;;;10.48;100.00
13594;BME280;6449;47.666;9.160;2023-02-18T04:14:01;98064.81;;;10.45;100.00
13594;BME280;6449;47.666;9.160;2023-02-18T04:29:15;98064.84;;;10.59;100.00
13594;BME280;6449;47.666;9.160;2023-02-18T04:34:24;98063.88;;;10.46;100.00
13594;BME280;6449;47.666;9.160;2023-02-18T04:39:21;98051.94;;;10.40;100.00
13594;BME280;6449;47.666;9.160;2023-02-18T04:49:25;98051.97;;;10.25;100.00
13594;BME280;6449;47.666;9.160;2023-02-18T04:54:19;98055.50;;;10.39;100.00
13594;BME280;6449;47.666;9.160;2023-02-18T04:59:12;98052.13;;;10.37;100.00
13594;BME280;6449;47.666;9.160;2023-02-18T05:04:06;98045.78;;;10.26;100.00
13594;BME280;6449;47.666;9.160;2023-02-18T05:13:54;98043.00;;;10.44;100.00
13594;BME280;6449;47.666;9.160;2023-02-18T05:18:47;98049.84;;;10.31;100.00
13594;BME280;6449;47.666;9.160;2023-02-18T05:28:47;98042.34;;;10.25;100.00
13594;BME280;6449;47.666;9.160;2023-02-18T05:33:42;98042.06;;;10.30;100.00
13594;BME280;6449;47.666;9.160;2023-02-18T05:38:35;98044.25;;;10.37;100.00
13594;BME280;6449;47.666;9.160;2023-02-18T05:43:29;98039.19;;;10.34;100.00
13594;BME280;6449;47.666;9.160;2023-02-18T05:48:44;98040.38;;;10.29;100.00
13594;BME280;6449;47.666;9.160;2023-02-18T06:04:19;98043.25;;;10.40;100.00
13594;BME280;6449;47.666;9.160;2023-02-18T06:09:12;98044.41;;;10.18;100.00
13594;BME280;6449;47.666;9.160;2023-02-18T06:14:06;98034.28;;;9.96;100.00
13594;BME280;6449;47.666;9.160;2023-02-18T06:18:59;98044.78;;;10.12;100.00
13594;BME280;6449;47.666;9.160;2023-02-18T06:23:54;98048.97;;;10.15;100.00
13594;BME280;6449;47.666;9.160;2023-02-18T06:49:22;98039.94;;;10.05;100.00
13594;BME280;6449;47.666;9.160;2023-02-18T06:54:16;98034.94;;;10.16;100.00
13594;BME280;6449;47.666;9.160;2023-02-18T07:04:13;98036.97;;;10.11;100.00
13594;BME280;6449;47.666;9.160;2023-02-18T07:09:13;98035.63;;;10.35;100.00
13594;BME280;6449;47.666;9.160;2023-02-18T07:34:33;98046.91;;;10.67;100.00
13594;BME280;6449;47.666;9.160;2023-02-18T07:39:30;98046.88;;;10.83;100.00
13594;BME280;6449;47.666;9.160;2023-02-18T07:44:23;98045.28;;;10.95;100.00
13594;BME280;6449;47.666;9.160;2023-02-18T07:49:18;98052.31;;;10.94;100.00
13594;BME280;6449;47.666;9.160;2023-02-18T08:09:08;98070.94;;;11.20;100.00
13594;BME280;6449;47.666;9.160;2023-02-18T08:14:02;98063.81;;;11.22;100.00
13594;BME280;6449;47.666;9.160;2023-02-18T08:23:58;98062.34;;;11.46;100.00
13594;BME280;6449;47.666;9.160;2023-02-18T08:28:55;98059.34;;;11.52;100.00
13594;BME280;6449;47.666;9.160;2023-02-18T08:33:49;98064.59;;;11.67;100.00
13594;BME280;6449;47.666;9.160;2023-02-18T08:43:49;98050.25;;;11.72;100.00
13594;BME280;6449;47.666;9.160;2023-02-18T08:53:51;98055.78;;;11.68;100.00
13594;BME280;6449;47.666;9.160;2023-02-18T08:58:44;98044.16;;;11.72;100.00
13594;BME280;6449;47.666;9.160;2023-02-18T09:08:36;98045.34;;;11.80;100.00
13594;BME280;6449;47.666;9.160;2023-02-18T09:28:55;98032.09;;;12.11;100.00
13594;BME280;6449;47.666;9.160;2023-02-18T09:33:52;98020.78;;;12.23;100.00
13594;BME280;6449;47.666;9.160;2023-02-18T09:38:46;98015.97;;;12.29;100.00
13594;BME280;6449;47.666;9.160;2023-02-18T09:43:44;98019.00;;;12.50;100.00
13594;BME280;6449;47.666;9.160;2023-02-18T09:48:43;98019.66;;;12.67;100.00
13594;BME280;6449;47.666;9.160;2023-02-18T09:53:45;98014.09;;;12.71;100.00
13594;BME280;6449;47.666;9.160;2023-02-18T09:58:43;98017.03;;;12.67;100.00
13594;BME280;6449;47.666;9.160;2023-02-18T10:03:38;98016.44;;;12.76;100.00
13594;BME280;6449;47.666;9.160;2023-02-18T10:13:40;98018.16;;;12.90;100.00
13594;BME280;6449;47.666;9.160;2023-02-18T10:18:40;98011.41;;;12.85;100.00
13594;BME280;6449;47.666;9.160;2023-02-18T10:23:39;98017.19;;;12.91;100.00
13594;BME280;6449;47.666;9.160;2023-02-18T10:28:35;98012.78;;;13.04;100.00
13594;BME280;6449;47.666;9.160;2023-02-18T10:38:41;98012.03;;;12.89;100.00
13594;BME280;6449;47.666;9.160;2023-02-18T10:43:46;98004.94;;;12.77;100.00
13594;BME280;6449;47.666;9.160;2023-02-18T10:49:00;97995.91;;;12.68;100.00
13594;BME280;6449;47.666;9.160;2023-02-18T10:54:06;97995.13;;;12.66;100.00
13594;BME280;6449;47.666;9.160;2023-02-18T10:59:21;97988.13;;;12.79;100.00
13594;BME280;6449;47.666;9.160;2023-02-18T11:04:26;97986.22;;;12.81;100.00
13594;BME280;6449;47.666;9.160;2023-02-18T11:09:38;97977.41;;;12.95;100.00
13594;BME280;6449;47.666;9.160;2023-02-18T11:14:42;97983.41;;;12.97;100.00
13594;BME280;6449;47.666;9.160;2023-02-18T11:19:37;97950.53;;;13.03;100.00
13594;BME280;6449;47.666;9.160;2023-02-18T11:24:38;97950.16;;;13.22;100.00
13594;BME280;6449;47.666;9.160;2023-02-18T11:29:33;97946.66;;;13.34;100.00
13594;BME280;6449;47.666;9.160;2023-02-18T11:34:30;97936.94;;;13.47;100.00
13594;BME280;6449;47.666;9.160;2023-02-18T11:39:27;97935.66;;;13.53;100.00
13594;BME280;6449;47.666;9.160;2023-02-18T11:44:27;97919.53;;;13.57;100.00
13594;BME280;6449;47.666;9.160;2023-02-18T11:49:23;97905.75;;;13.78;100.00
13594;BME280;6449;47.666;9.160;2023-02-18T11:59:14;97893.91;;;13.83;100.00
13594;BME280;6449;47.666;9.160;2023-02-18T12:04:13;97891.53;;;13.80;100.00
13594;BME280;6449;47.666;9.160;2023-02-18T12:09:23;97886.00;;;13.83;100.00
13594;BME280;6449;47.666;9.160;2023-02-18T12:14:30;97878.22;;;13.82;100.00
13594;BME280;6449;47.666;9.160;2023-02-18T12:19:55;97877.88;;;13.62;100.00
13594;BME280;6449;47.666;9.160;2023-02-18T12:25:21;97864.16;;;13.70;100.00
13594;BME280;6449;47.666;9.160;2023-02-18T12:30:44;97853.22;;;13.63;100.00
13594;BME280;6449;47.666;9.160;2023-02-18T12:36:02;97859.66;;;13.59;100.00
13594;BME280;6449;47.666;9.160;2023-02-18T12:41:15;97843.41;;;13.66;100.00
13594;BME280;6449;47.666;9.160;2023-02-18T12:46:27;97833.03;;;13.75;100.00
13594;BME280;6449;47.666;9.160;2023-02-18T12:51:37;97829.91;;;13.70;100.00
13594;BME280;6449;47.666;9.160;2023-02-18T12:57:23;97821.28;;;13.79;100.00
13594;BME280;6449;47.666;9.160;2023-02-18T13:02:42;97811.88;;;13.88;100.00
13594;BME280;6449;47.666;9.160;2023-02-18T13:07:59;97804.50;;;14.04;100.00
13594;BME280;6449;47.666;9.160;2023-02-18T13:13:03;97795.63;;;14.05;100.00
13594;BME280;6449;47.666;9.160;2023-02-18T13:18:10;97788.34;;;14.20;100.00
13594;BME280;6449;47.666;9.160;2023-02-18T13:23:14;97787.94;;;14.49;100.00
13594;BME280;6449;47.666;9.160;2023-02-18T13:28:20;97779.66;;;14.64;100.00
13594;BME280;6449;47.666;9.160;2023-02-18T13:33:25;97770.91;;;14.53;100.00
13594;BME280;6449;47.666;9.160;2023-02-18T13:39:05;97766.50;;;14.76;100.00
13594;BME280;6449;47.666;9.160;2023-02-18T13:43:59;97767.78;;;14.92;100.00
13594;BME280;6449;47.666;9.160;2023-02-18T13:49:05;97754.22;;;14.97;100.00
13594;BME280;6449;47.666;9.160;2023-02-18T13:54:15;97753.13;;;15.00;100.00
13594;BME280;6449;47.666;9.160;2023-02-18T13:59:17;97752.06;;;14.80;100.00
13594;BME280;6449;47.666;9.160;2023-02-18T14:04:49;97745.00;;;14.91;100.00
13594;BME280;6449;47.666;9.160;2023-02-18T14:09:45;97737.81;;;14.82;100.00
13594;BME280;6449;47.666;9.160;2023-02-18T14:14:39;97734.81;;;14.76;100.00
13594;BME280;6449;47.666;9.160;2023-02-18T14:19:33;97733.94;;;14.75;100.00
13594;BME280;6449;47.666;9.160;2023-02-18T14:24:48;97737.91;;;14.70;100.00
13594;BME280;6449;47.666;9.160;2023-02-18T14:29:42;97738.19;;;14.66;100.00
13594;BME280;6449;47.666;9.160;2023-02-18T14:35:12;97736.50;;;14.65;100.00
13594;BME280;6449;47.666;9.160;2023-02-18T14:40:27;97734.41;;;14.47;100.00
13594;BME280;6449;47.666;9.160;2023-02-18T14:45:39;97745.31;;;14.31;100.00
13594;BME280;6449;47.666;9.160;2023-02-18T14:50:41;97736.69;;;14.06;100.00
13594;BME280;6449;47.666;9.160;2023-02-18T14:55:43;97738.56;;;14.04;100.00
13594;BME280;6449;47.666;9.160;2023-02-18T15:00:41;97726.81;;;13.86;100.00
13594;BME280;6449;47.666;9.160;2023-02-18T15:05:39;97733.75;;;13.87;100.00
13594;BME280;6449;47.666;9.160;2023-02-18T15:10:40;97733.72;;;13.76;100.00
13594;BME280;6449;47.666;9.160;2023-02-18T15:15:35;97742.59;;;13.75;100.00
13594;BME280;6449;47.666;9.160;2023-02-18T15:20:33;97736.84;;;13.70;100.00
13594;BME280;6449;47.666;9.160;2023-02-18T15:25:27;97736.34;;;13.65;100.00
13594;BME280;6449;47.666;9.160;2023-02-18T15:30:27;97734.03;;;13.60;100.00
13594;BME280;6449;47.666;9.160;2023-02-18T15:35:26;97733.03;;;13.50;100.00
13594;BME280;6449;47.666;9.160;2023-02-18T15:40:24;97728.44;;;13.41;100.00
13594;BME280;6449;47.666;9.160;2023-02-18T15:45:23;97728.19;;;13.32;100.00
13594;BME280;6449;47.666;9.160;2023-02-18T15:50:21;97739.22;;;13.38;100.00
13594;BME280;6449;47.666;9.160;2023-02-18T15:55:26;97722.75;;;13.23;100.00
13594;BME280;6449;47.666;9.160;2023-02-18T16:00:29;97721.06;;;13.22;100.00
13594;BME280;6449;47.666;9.160;2023-02-18T16:05:27;97724.53;;;13.22;100.00
13594;BME280;6449;47.666;9.160;2023-02-18T16:10:24;97720.75;;;13.14;100.00
13594;BME280;6449;47.666;9.160;2023-02-18T16:15:29;97717.72;;;13.07;100.00
13594;BME280;6449;47.666;9.160;2023-02-18T16:20:30;97715.13;;;12.94;100.00
13594;BME280;6449;47.666;9.160;2023-02-18T16:25:35;97718.13;;;12.77;100.00
13594;BME280;6449;47.666;9.160;2023-02-18T16:30:34;97711.13;;;12.65;100.00
13594;BME280;6449;47.666;9.160;2023-02-18T16:35:30;97704.88;;;12.42;100.00
13594;BME280;6449;47.666;9.160;2023-02-18T16:40:40;97711.72;;;12.31;100.00
13594;BME280;6449;47.666;9.160;2023-02-18T16:45:38;97718.44;;;12.23;100.00
13594;BME280;6449;47.666;9.160;2023-02-18T16:50:33;97718.53;;;12.09;100.00
13594;BME280;6449;47.666;9.160;2023-02-18T16:55:29;97729.06;;;12.09;100.00
13594;BME280;6449;47.666;9.160;2023-02-18T17:00:23;97725.72;;;11.94;100.00
13594;BME280;6449;47.666;9.160;2023-02-18T17:05:21;97727.16;;;11.85;100.00
13594;BME280;6449;47.666;9.160;2023-02-18T17:10:18;97740.13;;;12.01;100.00
13594;BME280;6449;47.666;9.160;2023-02-18T17:15:33;97739.50;;;11.70;100.00
13594;BME280;6449;47.666;9.160;2023-02-18T17:20:31;97739.09;;;11.64;100.00
13594;BME280;6449;47.666;9.160;2023-02-18T17:25:31;97740.34;;;11.58;100.00
13594;BME280;6449;47.666;9.160;2023-02-18T17:30:25;97742.94;;;11.45;100.00
13594;BME280;6449;47.666;9.160;2023-02-18T17:35:22;97742.06;;;11.45;100.00
13594;BME280;6449;47.666;9.160;2023-02-18T17:40:19;97750.72;;;11.47;100.00
13594;BME280;6449;47.666;9.160;2023-02-18T17:45:18;97750.75;;;11.33;100.00
13594;BME280;6449;47.666;9.160;2023-02-18T17:50:14;97757.47;;;11.24;100.00
13594;BME280;6449;47.666;9.160;2023-02-18T17:55:19;97763.41;;;11.13;100.00
13594;BME280;6449;47.666;9.160;2023-02-18T18:00:17;97764.94;;;11.03;100.00
13594;BME280;6449;47.666;9.160;2023-02-18T18:05:21;97766.91;;;10.85;100.00
13594;BME280;6449;47.666;9.160;2023-02-18T18:10:17;97775.94;;;10.67;100.00
13594;BME280;6449;47.666;9.160;2023-02-18T18:15:26;97781.03;;;10.56;100.00
13594;BME280;6449;47.666;9.160;2023-02-18T18:20:21;97763.34;;;10.45;100.00
13594;BME280;6449;47.666;9.160;2023-02-18T18:25:19;97776.72;;;10.40;100.00
13594;BME280;6449;47.666;9.160;2023-02-18T18:30:13;97769.97;;;10.36;100.00
13594;BME280;6449;47.666;9.160;2023-02-18T18:35:20;97778.94;;;10.32;100.00
13594;BME280;6449;47.666;9.160;2023-02-18T18:40:14;97779.59;;;10.36;100.00
13594;BME280;6449;47.666;9.160;2023-02-18T18:45:19;97784.19;;;10.32;100.00
13594;BME280;6449;47.666;9.160;2023-02-18T18:50:13;97792.53;;;10.39;100.00
13594;BME280;6449;47.666;9.160;2023-02-18T18:55:18;97793.50;;;10.22;100.00
13594;BME280;6449;47.666;9.160;2023-02-18T19:00:19;97789.38;;;10.04;100.00
13594;BME280;6449;47.666;9.160;2023-02-18T19:05:19;97787.38;;;9.93;100.00
13594;BME280;6449;47.666;9.160;2023-02-18T19:10:13;97796.44;;;9.87;100.00
13594;BME280;6449;47.666;9.160;2023-02-18T19:15:11;97789.91;;;9.94;100.00
13594;BME280;6449;47.666;9.160;2023-02-18T19:20:13;97793.31;;;9.96;100.00
13594;BME280;6449;47.666;9.160;2023-02-18T19:25:07;97802.25;;;9.92;100.00
13594;BME280;6449;47.666;9.160;2023-02-18T19:30:00;97808.06;;;9.97;100.00
13594;BME280;6449;47.666;9.160;2023-02-18T19:34:53;97809.72;;;9.84;100.00
13594;BME280;6449;47.666;9.160;2023-02-18T19:39:48;97807.09;;;9.84;100.00
13594;BME280;6449;47.666;9.160;2023-02-18T19:44:42;97817.19;;;9.76;100.00
13594;BME280;6449;47.666;9.160;2023-02-18T19:49:35;97815.09;;;9.67;100.00
13594;BME280;6449;47.666;9.160;2023-02-18T19:54:29;97815.78;;;9.55;100.00
13594;BME280;6449;47.666;9.160;2023-02-18T19:59:24;97812.69;;;9.48;100.00
13594;BME280;6449;47.666;9.160;2023-02-18T20:04:17;97806.69;;;9.46;100.00
13594;BME280;6449;47.666;9.160;2023-02-18T20:09:11;97820.03;;;9.41;100.00
13594;BME280;6449;47.666;9.160;2023-02-18T20:14:04;97816.31;;;9.45;100.00
13594;BME280;6449;47.666;9.160;2023-02-18T20:18:59;97824.91;;;9.48;100.00
13594;BME280;6449;47.666;9.160;2023-02-18T20:23:53;97819.50;;;9.51;100.00
13594;BME280;6449;47.666;9.160;2023-02-18T20:28:47;97826.84;;;9.60;100.00
13594;BME280;6449;47.666;9.160;2023-02-18T20:33:41;97822.63;;;9.41;100.00
13594;BME280;6449;47.666;9.160;2023-02-18T20:38:37;97821.91;;;9.24;100.00
13594;BME280;6449;47.666;9.160;2023-02-18T20:43:31;97818.09;;;9.29;100.00
13594;BME280;6449;47.666;9.160;2023-02-18T20:48:24;97817.66;;;9.37;100.00
13594;BME280;6449;47.666;9.160;2023-02-18T20:53:17;97818.59;;;9.36;100.00
13594;BME280;6449;47.666;9.160;2023-02-18T20:58:12;97824.31;;;9.42;100.00
13594;BME280;6449;47.666;9.160;2023-02-18T21:03:06;97820.97;;;9.40;100.00
13594;BME280;6449;47.666;9.160;2023-02-18T21:08:00;97819.06;;;9.58;100.00
13594;BME280;6449;47.666;9.160;2023-02-18T21:12:54;97820.41;;;9.65;100.00
13594;BME280;6449;47.666;9.160;2023-02-18T21:17:48;97818.28;;;9.72;100.00
13594;BME280;6449;47.666;9.160;2023-02-18T21:22:42;97816.16;;;9.79;100.00
13594;BME280;6449;47.666;9.160;2023-02-18T21:27:35;97820.78;;;9.59;100.00
13594;BME280;6449;47.666;9.160;2023-02-18T21:47:52;97805.47;;;8.90;100.00
13594;BME280;6449;47.666;9.160;2023-02-18T21:52:45;97809.25;;;8.84;100.00
13594;BME280;6449;47.666;9.160;2023-02-18T21:57:39;97792.44;;;8.88;100.00
13594;BME280;6449;47.666;9.160;2023-02-18T22:02:33;97796.69;;;8.91;100.00
13594;BME280;6449;47.666;9.160;2023-02-18T22:07:29;97797.34;;;8.95;100.00
13594;BME280;6449;47.666;9.160;2023-02-18T22:12:23;97791.94;;;8.98;100.00
13594;BME280;6449;47.666;9.160;2023-02-18T22:17:18;97789.50;;;8.95;100.00
13594;BME280;6449;47.666;9.160;2023-02-18T22:22:12;97783.16;;;9.14;100.00
13594;BME280;6449;47.666;9.160;2023-02-18T22:27:07;97781.22;;;9.18;100.00
13594;BME280;6449;47.666;9.160;2023-02-18T22:32:00;97782.16;;;9.17;100.00
13594;BME280;6449;47.666;9.160;2023-02-18T22:36:54;97777.59;;;9.21;100.00
13594;BME280;6449;47.666;9.160;2023-02-18T22:41:47;97776.09;;;9.16;100.00
13594;BME280;6449;47.666;9.160;2023-02-18T22:46:43;97774.22;;;9.03;100.00
13594;BME280;6449;47.666;9.160;2023-02-18T22:51:40;97777.94;;;8.99;100.00
13594;BME280;6449;47.666;9.160;2023-02-18T22:56:34;97769.44;;;8.95;100.00
13594;BME280;6449;47.666;9.160;2023-02-18T23:01:30;97766.63;;;8.98;100.00
13594;BME280;6449;47.666;9.160;2023-02-18T23:06:25;97773.25;;;8.89;100.00
13594;BME280;6449;47.666;9.160;2023-02-18T23:11:19;97766.88;;;8.93;100.00
13594;BME280;6449;47.666;9.160;2023-02-18T23:16:14;97776.94;;;8.85;100.00
13594;BME280;6449;47.666;9.160;2023-02-18T23:21:14;97774.41;;;8.84;100.00
13594;BME280;6449;47.666;9.160;2023-02-18T23:26:14;97776.09;;;8.85;100.00
13594;BME280;6449;47.666;9.160;2023-02-18T23:36:17;97765.28;;;9.07;100.00
13594;BME280;6449;47.666;9.160;2023-02-18T23:41:12;97758.06;;;8.96;100.00
13594;BME280;6449;47.666;9.160;2023-02-18T23:46:06;97766.97;;;8.92;100.00
13594;BME280;6449;47.666;9.160;2023-02-18T23:51:09;97758.41;;;8.90;100.00
13594;BME280;6449;47.666;9.160;2023-02-18T23:56:13;97760.22;;;8.88;100.00
